createdAt,value
2022-09-06T00:01:12.802Z,20.41
2022-09-06T00:03:41.132Z,20.38
2022-09-06T00:06:15.405Z,20.38
2022-09-06T00:08:45.221Z,20.38
2022-09-06T00:11:14.328Z,20.41
2022-09-06T00:13:42.413Z,20.38
2022-09-06T00:16:16.488Z,20.39
2022-09-06T00:18:45.355Z,20.44
2022-09-06T00:21:25.221Z,20.52
2022-09-06T00:23:53.812Z,20.59
2022-09-06T00:26:22.871Z,20.57
2022-09-06T00:28:50.879Z,20.53
2022-09-06T00:31:21.798Z,20.52
2022-09-06T00:33:50.123Z,20.51
2022-09-06T00:36:18.909Z,20.44
2022-09-06T00:38:47.201Z,20.42
2022-09-06T00:41:16.508Z,20.42
2022-09-06T00:43:44.891Z,20.44
2022-09-06T00:46:19.374Z,20.48
2022-09-06T00:48:53.067Z,20.45
2022-09-06T00:51:23.811Z,20.46
2022-09-06T00:53:52.234Z,20.42
2022-09-06T00:56:20.761Z,20.42
2022-09-06T00:58:50.143Z,20.44
2022-09-06T01:01:18.819Z,20.45
2022-09-06T01:03:48.546Z,20.45
2022-09-06T01:06:20.051Z,20.44
2022-09-06T01:09:01.488Z,20.34
2022-09-06T01:11:50.840Z,20.27
2022-09-06T01:14:35.813Z,20.21
2022-09-06T01:17:22.791Z,20.16
2022-09-06T01:19:59.501Z,20.07
2022-09-06T01:22:57.104Z,20.00
2022-09-06T01:25:43.850Z,19.93
2022-09-06T01:28:33.417Z,19.87
2022-09-06T01:31:18.452Z,19.84
2022-09-06T01:34:07.686Z,19.80
2022-09-06T01:37:10.570Z,19.80
2022-09-06T01:39:40.549Z,19.77
2022-09-06T01:42:16.550Z,19.76
2022-09-06T01:45:07.601Z,19.70
2022-09-06T01:47:44.144Z,19.76
2022-09-06T01:50:32.921Z,19.80
2022-09-06T01:53:22.565Z,19.80
2022-09-06T01:56:13.223Z,19.76
2022-09-06T01:58:59.730Z,19.74
2022-09-06T02:01:46.207Z,19.76
2022-09-06T02:04:22.959Z,19.72
2022-09-06T02:06:55.971Z,19.70
2022-09-06T02:09:25.735Z,19.65
2022-09-06T02:11:59.951Z,19.61
2022-09-06T02:15:15.149Z,19.59
2022-09-06T02:18:11.125Z,19.55
2022-09-06T02:20:45.066Z,19.54
2022-09-06T02:23:15.098Z,19.52
2022-09-06T02:25:51.106Z,19.49
2022-09-06T02:28:19.313Z,19.44
2022-09-06T02:30:54.220Z,19.44
2022-09-06T02:33:26.485Z,19.41
2022-09-06T02:35:55.342Z,19.38
2022-09-06T02:38:26.711Z,19.32
2022-09-06T02:40:55.984Z,19.27
2022-09-06T02:43:23.849Z,19.25
2022-09-06T02:45:51.743Z,19.21
2022-09-06T02:48:19.595Z,19.21
2022-09-06T02:50:47.464Z,19.19
2022-09-06T02:53:16.634Z,19.18
2022-09-06T02:55:47.591Z,19.19
2022-09-06T02:58:15.906Z,19.17
2022-09-06T03:00:44.120Z,19.15
2022-09-06T03:03:12.210Z,19.15
2022-09-06T03:05:40.241Z,19.14
2022-09-06T03:08:08.459Z,19.10
2022-09-06T03:10:36.401Z,19.15
2022-09-06T03:13:04.361Z,19.06
2022-09-06T03:15:32.341Z,19.06
2022-09-06T03:18:03.114Z,19.01
2022-09-06T03:20:35.036Z,19.00
2022-09-06T03:23:05.473Z,18.96
2022-09-06T03:25:33.456Z,18.93
2022-09-06T03:28:01.775Z,18.80
2022-09-06T03:30:30.815Z,18.76
2022-09-06T03:33:02.651Z,18.73
2022-09-06T03:35:32.135Z,18.59
2022-09-06T03:37:59.995Z,18.52
2022-09-06T03:40:27.874Z,18.51
2022-09-06T03:42:55.648Z,18.45
2022-09-06T03:45:23.452Z,18.42
2022-09-06T03:47:51.599Z,18.34
2022-09-06T03:50:19.579Z,18.34
2022-09-06T03:52:47.393Z,18.35
2022-09-06T03:55:15.411Z,18.35
2022-09-06T03:57:43.329Z,18.37
2022-09-06T04:00:11.963Z,18.35
2022-09-06T04:02:39.853Z,18.35
2022-09-06T04:05:08.393Z,18.35
2022-09-06T04:07:38.179Z,18.34
2022-09-06T04:10:06.515Z,18.38
2022-09-06T04:12:34.981Z,18.38
2022-09-06T04:15:03.007Z,18.39
2022-09-06T04:17:31.079Z,18.38
2022-09-06T04:19:58.885Z,18.41
2022-09-06T04:22:26.766Z,18.37
2022-09-06T04:24:55.079Z,18.39
2022-09-06T04:27:22.944Z,18.45
2022-09-06T04:29:50.882Z,18.44
2022-09-06T04:32:18.704Z,18.46
2022-09-06T04:34:46.584Z,18.45
2022-09-06T04:37:17.926Z,18.44
2022-09-06T04:39:46.659Z,18.41
2022-09-06T04:42:14.618Z,18.39
2022-09-06T04:44:42.785Z,18.38
2022-09-06T04:47:15.813Z,18.37
2022-09-06T04:49:44.213Z,18.31
2022-09-06T04:52:14.765Z,18.28
2022-09-06T04:54:42.965Z,18.27
2022-09-06T04:57:10.986Z,18.27
2022-09-06T04:59:38.932Z,18.27
2022-09-06T05:02:06.863Z,18.25
2022-09-06T05:04:34.750Z,18.24
2022-09-06T05:07:04.974Z,18.22
2022-09-06T05:09:33.744Z,18.24
2022-09-06T05:12:02.242Z,18.25
2022-09-06T05:14:30.908Z,18.27
2022-09-06T05:16:59.061Z,18.27
2022-09-06T05:19:27.011Z,18.25
2022-09-06T05:21:55.042Z,18.28
2022-09-06T05:24:22.942Z,18.32
2022-09-06T05:26:50.760Z,18.34
2022-09-06T05:29:18.608Z,18.38
2022-09-06T05:31:46.492Z,18.41
2022-09-06T05:34:15.124Z,18.41
2022-09-06T05:36:43.760Z,18.46
2022-09-06T05:39:11.689Z,18.42
2022-09-06T05:41:39.669Z,18.44
2022-09-06T05:44:07.953Z,18.45
2022-09-06T05:46:43.047Z,18.51
2022-09-06T05:49:11.589Z,18.53
2022-09-06T05:51:40.142Z,18.59
2022-09-06T05:54:10.702Z,18.66
2022-09-06T05:56:38.484Z,18.74
2022-09-06T05:59:06.492Z,18.80
2022-09-06T06:01:34.576Z,19.04
2022-09-06T06:04:05.355Z,19.10
2022-09-06T06:06:34.698Z,19.18
2022-09-06T06:09:06.430Z,19.22
2022-09-06T06:11:34.339Z,19.25
2022-09-06T06:14:04.069Z,19.32
2022-09-06T06:16:31.990Z,19.39
2022-09-06T06:18:59.801Z,19.39
2022-09-06T06:21:30.095Z,19.51
2022-09-06T06:24:00.542Z,19.93
2022-09-06T06:26:31.164Z,19.90
2022-09-06T06:29:01.814Z,19.83
2022-09-06T06:31:31.479Z,19.82
2022-09-06T06:34:03.619Z,19.90
2022-09-06T06:36:33.882Z,20.16
2022-09-06T06:39:03.834Z,20.56
2022-09-06T06:41:33.007Z,21.23
2022-09-06T06:44:03.075Z,22.31
2022-09-06T06:46:39.291Z,22.76
2022-09-06T06:49:07.774Z,22.06
2022-09-06T06:51:37.817Z,21.94
2022-09-06T06:54:06.392Z,22.33
2022-09-06T06:56:37.455Z,22.92
2022-09-06T06:59:07.805Z,23.54
2022-09-06T07:01:37.480Z,24.05
2022-09-06T07:04:07.486Z,24.47
2022-09-06T07:12:31.790Z,25.06
2022-09-06T07:14:59.702Z,25.37
2022-09-06T07:17:27.950Z,25.75
2022-09-06T07:22:40.240Z,26.10
2022-09-06T07:25:13.340Z,26.17
2022-09-06T07:27:47.213Z,26.54
2022-09-06T07:30:16.417Z,26.78
2022-09-06T07:32:44.246Z,26.62
2022-09-06T07:35:13.790Z,26.52
2022-09-06T07:37:42.128Z,26.98
2022-09-06T07:40:11.261Z,27.12
2022-09-06T07:42:39.606Z,26.81
2022-09-06T07:45:08.360Z,26.75
2022-09-06T07:53:15.512Z,26.69
2022-09-06T07:55:45.877Z,26.91
2022-09-06T07:58:14.305Z,27.00
2022-09-06T08:00:42.381Z,27.03
2022-09-06T08:03:10.322Z,26.91
2022-09-06T08:11:18.842Z,26.36
2022-09-06T08:13:51.160Z,26.10
2022-09-06T08:16:20.217Z,25.79
2022-09-06T08:19:18.474Z,25.82
2022-09-06T08:21:46.740Z,25.74
2022-09-06T08:24:14.840Z,25.60
2022-09-06T08:26:43.181Z,25.40
2022-09-06T08:29:12.276Z,25.31
2022-09-06T08:31:44.772Z,25.05
2022-09-06T08:34:14.223Z,25.00
2022-09-06T08:36:43.587Z,25.09
2022-09-06T08:39:11.942Z,24.90
2022-09-06T08:41:55.301Z,24.73
2022-09-06T08:47:21.603Z,24.62
2022-09-06T08:49:54.664Z,24.93
2022-09-06T08:53:00.129Z,24.95
2022-09-06T08:55:37.921Z,24.90
2022-09-06T08:58:21.434Z,24.90
2022-09-06T09:00:58.689Z,25.10
2022-09-06T09:03:47.357Z,25.28
2022-09-06T09:06:15.680Z,25.52
2022-09-06T09:09:10.367Z,25.33
2022-09-06T09:11:42.788Z,25.34
2022-09-06T09:14:20.037Z,25.43
2022-09-06T09:16:58.868Z,25.37
2022-09-06T09:19:26.810Z,25.43
2022-09-06T09:21:55.540Z,25.38
2022-09-06T09:24:25.103Z,25.40
2022-09-06T09:27:12.864Z,25.60
2022-09-06T09:32:46.173Z,25.62
2022-09-06T09:35:17.341Z,25.48
2022-09-06T09:37:46.628Z,25.55
2022-09-06T09:40:28.799Z,25.55
2022-09-06T09:43:11.140Z,25.61
2022-09-06T09:45:39.172Z,25.95
2022-09-06T09:48:27.637Z,26.00
2022-09-06T09:50:56.230Z,26.05
2022-09-06T09:53:26.058Z,26.22
2022-09-06T09:55:59.192Z,26.26
2022-09-06T09:58:37.547Z,26.30
2022-09-06T10:01:18.148Z,26.15
2022-09-06T10:09:33.530Z,26.29
2022-09-06T10:12:01.647Z,26.32
2022-09-06T10:14:33.263Z,26.48
2022-09-06T10:17:01.582Z,26.51
2022-09-06T10:19:44.173Z,26.48
2022-09-06T10:22:31.700Z,26.64
2022-09-06T10:25:31.155Z,26.40
2022-09-06T10:28:16.633Z,26.64
2022-09-06T10:30:58.325Z,26.65
2022-09-06T10:33:53.904Z,26.52
2022-09-06T10:36:34.561Z,26.85
2022-09-06T10:39:21.341Z,27.10
2022-09-06T10:42:05.822Z,27.29
2022-09-06T10:44:58.040Z,27.15
2022-09-06T10:47:35.198Z,26.99
2022-09-06T10:50:05.238Z,26.89
2022-09-06T10:52:42.090Z,26.92
2022-09-06T10:55:15.758Z,26.68
2022-09-06T11:00:47.402Z,26.91
2022-09-06T11:06:14.036Z,27.29
2022-09-06T11:09:10.780Z,27.24
2022-09-06T11:11:47.623Z,27.40
2022-09-06T11:14:16.579Z,27.60
2022-09-06T11:17:10.148Z,27.67
2022-09-06T11:19:47.470Z,27.88
2022-09-06T11:22:45.775Z,27.71
2022-09-06T11:25:23.439Z,27.67
2022-09-06T11:27:58.065Z,27.58
2022-09-06T11:30:29.755Z,27.50
2022-09-06T11:33:25.874Z,27.75
2022-09-06T11:36:14.432Z,27.71
2022-09-06T11:38:43.305Z,28.09
2022-09-06T11:41:17.819Z,28.26
2022-09-06T11:43:51.897Z,28.09
2022-09-06T11:46:35.022Z,28.06
2022-09-06T11:49:32.171Z,28.57
2022-09-06T11:52:00.550Z,28.71
2022-09-06T11:54:44.540Z,28.41
2022-09-06T11:57:21.562Z,28.37
2022-09-06T12:00:00.551Z,28.39
2022-09-06T12:02:35.599Z,28.60
2022-09-06T12:05:07.189Z,28.78
2022-09-06T12:07:59.363Z,29.09
2022-09-06T12:10:30.583Z,29.29
2022-09-06T12:12:58.884Z,28.85
2022-09-06T12:15:45.450Z,28.67
2022-09-06T12:18:42.337Z,28.67
2022-09-06T12:21:31.428Z,28.88
2022-09-06T12:24:00.389Z,29.39
2022-09-06T12:26:51.969Z,29.45
2022-09-06T12:29:27.574Z,29.30
2022-09-06T12:31:58.807Z,29.27
2022-09-06T12:34:33.637Z,29.32
2022-09-06T12:37:08.064Z,29.58
2022-09-06T12:39:36.165Z,29.89
2022-09-06T12:42:12.818Z,30.00
2022-09-06T12:44:49.606Z,29.95
2022-09-06T12:47:34.036Z,29.70
2022-09-06T12:50:13.728Z,29.46
2022-09-06T12:52:53.626Z,29.64
2022-09-06T12:55:28.591Z,29.66
2022-09-06T12:57:58.799Z,29.84
2022-09-06T13:00:54.696Z,29.91
2022-09-06T13:03:41.105Z,29.66
2022-09-06T13:06:24.541Z,29.61
2022-09-06T13:08:57.215Z,29.61
2022-09-06T13:11:36.667Z,29.61
2022-09-06T13:14:23.867Z,29.68
2022-09-06T13:16:53.374Z,29.68
2022-09-06T13:19:38.240Z,29.54
2022-09-06T13:22:13.798Z,29.58
2022-09-06T13:24:47.736Z,29.63
2022-09-06T13:27:35.848Z,29.64
2022-09-06T13:30:08.816Z,29.53
2022-09-06T13:32:45.597Z,29.37
2022-09-06T13:35:29.339Z,29.27
2022-09-06T13:38:19.831Z,29.45
2022-09-06T13:41:11.840Z,29.43
2022-09-06T13:43:45.570Z,29.34
2022-09-06T13:46:13.806Z,29.26
2022-09-06T13:48:44.482Z,29.33
2022-09-06T13:51:12.773Z,29.25
2022-09-06T13:53:40.639Z,29.36
2022-09-06T13:56:16.490Z,29.45
2022-09-06T13:58:45.185Z,29.40
2022-09-06T14:01:14.237Z,29.20
2022-09-06T14:03:42.825Z,29.08
2022-09-06T14:06:11.105Z,29.02
2022-09-06T14:09:03.331Z,29.25
2022-09-06T14:11:28.101Z,29.22
2022-09-06T14:13:56.267Z,29.20
2022-09-06T14:16:24.920Z,29.39
2022-09-06T14:18:53.194Z,29.18
2022-09-06T14:21:21.323Z,28.96
2022-09-06T14:23:53.713Z,28.95
2022-09-06T14:26:23.294Z,28.94
2022-09-06T14:28:52.434Z,28.96
2022-09-06T14:31:23.715Z,28.94
2022-09-06T14:33:53.000Z,28.94
2022-09-06T14:36:23.345Z,28.85
2022-09-06T14:38:52.463Z,28.63
2022-09-06T14:41:21.422Z,28.54
2022-09-06T14:43:55.446Z,28.46
2022-09-06T14:46:24.554Z,28.49
2022-09-06T14:49:02.165Z,28.60
2022-09-06T14:51:31.619Z,28.65
2022-09-06T14:54:04.461Z,28.49
2022-09-06T14:56:32.727Z,28.43
2022-09-06T14:59:01.062Z,28.54
2022-09-06T15:01:37.160Z,28.63
2022-09-06T15:04:28.369Z,28.69
2022-09-06T15:06:56.698Z,28.56
2022-09-06T15:09:25.292Z,28.57
2022-09-06T15:11:54.346Z,28.56
2022-09-06T15:14:29.576Z,28.77
2022-09-06T15:17:00.406Z,28.61
2022-09-06T15:19:30.122Z,28.63
2022-09-06T15:22:00.954Z,28.75
2022-09-06T15:24:29.635Z,28.82
2022-09-06T15:26:58.738Z,28.87
2022-09-06T15:29:27.471Z,28.91
2022-09-06T15:31:56.132Z,28.79
2022-09-06T15:34:26.430Z,28.65
2022-09-06T15:36:56.664Z,28.53
2022-09-06T15:39:25.203Z,28.56
2022-09-06T15:41:53.527Z,28.67
2022-09-06T15:44:23.310Z,28.64
2022-09-06T15:46:58.393Z,28.44
2022-09-06T15:49:29.456Z,28.27
2022-09-06T15:52:00.866Z,28.46
2022-09-06T15:54:48.183Z,28.43
2022-09-06T15:57:17.356Z,28.24
2022-09-06T15:59:46.038Z,28.19
2022-09-06T16:02:15.003Z,28.16
2022-09-06T16:04:43.681Z,28.09
2022-09-06T16:07:12.459Z,28.08
2022-09-06T16:09:40.723Z,27.96
2022-09-06T16:12:09.898Z,27.99
2022-09-06T16:14:38.577Z,27.98
2022-09-06T16:17:06.464Z,27.87
2022-09-06T16:19:35.088Z,27.84
2022-09-06T16:22:03.214Z,27.80
2022-09-06T16:24:31.534Z,27.75
2022-09-06T16:26:59.680Z,27.77
2022-09-06T16:29:30.024Z,27.75
2022-09-06T16:31:59.895Z,27.81
2022-09-06T16:34:28.621Z,27.81
2022-09-06T16:36:57.937Z,27.80
2022-09-06T16:39:28.242Z,27.67
2022-09-06T16:41:56.125Z,27.62
2022-09-06T16:44:24.095Z,27.58
2022-09-06T16:46:53.676Z,27.41
2022-09-06T16:49:22.873Z,27.29
2022-09-06T16:51:53.782Z,27.24
2022-09-06T16:54:21.962Z,27.12
2022-09-06T16:56:50.317Z,27.03
2022-09-06T16:59:18.672Z,26.99
2022-09-06T17:01:47.354Z,26.94
2022-09-06T17:04:15.829Z,26.85
2022-09-06T17:06:46.997Z,26.75
2022-09-06T17:09:18.709Z,26.65
2022-09-06T17:11:49.769Z,26.54
2022-09-06T17:14:18.028Z,26.41
2022-09-06T17:17:04.565Z,26.30
2022-09-06T17:19:41.667Z,26.12
2022-09-06T17:22:11.573Z,26.02
2022-09-06T17:24:40.716Z,25.96
2022-09-06T17:27:09.591Z,25.92
2022-09-06T17:29:39.942Z,25.85
2022-09-06T17:32:10.196Z,25.77
2022-09-06T17:34:40.351Z,25.68
2022-09-06T17:37:11.459Z,25.61
2022-09-06T17:39:40.408Z,25.54
2022-09-06T17:42:11.537Z,25.47
2022-09-06T17:44:39.582Z,25.43
2022-09-06T17:47:12.934Z,25.34
2022-09-06T17:49:44.539Z,25.30
2022-09-06T17:52:12.655Z,25.26
2022-09-06T17:54:40.680Z,25.24
2022-09-06T17:57:09.017Z,25.22
2022-09-06T17:59:38.253Z,25.19
2022-09-06T18:02:06.452Z,25.13
2022-09-06T18:04:35.159Z,25.12
2022-09-06T18:07:05.685Z,25.12
2022-09-06T18:09:33.994Z,25.05
2022-09-06T18:12:02.208Z,24.99
2022-09-06T18:14:30.172Z,24.95
2022-09-06T18:16:58.726Z,24.92
2022-09-06T18:19:27.984Z,24.89
2022-09-06T18:21:57.424Z,24.89
2022-09-06T18:24:25.656Z,24.86
2022-09-06T18:26:53.738Z,24.85
2022-09-06T18:29:21.791Z,24.78
2022-09-06T18:31:53.395Z,24.79
2022-09-06T18:34:21.929Z,24.79
2022-09-06T18:36:50.247Z,24.72
2022-09-06T18:39:19.279Z,24.65
2022-09-06T18:42:03.963Z,24.57
2022-09-06T18:44:33.651Z,24.51
2022-09-06T18:47:03.741Z,24.47
2022-09-06T18:49:33.776Z,24.37
2022-09-06T18:52:03.699Z,24.31
2022-09-06T18:54:32.445Z,24.23
2022-09-06T18:57:00.507Z,24.13
2022-09-06T18:59:28.523Z,24.03
2022-09-06T19:01:56.878Z,24.00
2022-09-06T19:04:25.086Z,23.98
2022-09-06T19:06:53.055Z,23.93
2022-09-06T19:09:21.377Z,23.83
2022-09-06T19:11:51.695Z,23.78
2022-09-06T19:14:20.264Z,23.71
2022-09-06T19:16:50.095Z,23.65
2022-09-06T19:19:18.449Z,23.61
2022-09-06T19:21:46.289Z,23.54
2022-09-06T19:24:16.034Z,23.52
2022-09-06T19:26:49.765Z,23.47
2022-09-06T19:29:21.272Z,23.41
2022-09-06T19:31:49.502Z,23.35
2022-09-06T19:34:20.589Z,23.28
2022-09-06T19:36:50.006Z,23.24
2022-09-06T19:39:18.506Z,23.18
2022-09-06T19:41:50.276Z,23.09
2022-09-06T19:44:20.714Z,23.00
2022-09-06T19:46:49.181Z,22.93
2022-09-06T19:49:20.078Z,22.90
2022-09-06T19:51:50.387Z,22.83
2022-09-06T19:54:18.992Z,22.75
2022-09-06T19:56:47.501Z,22.65
2022-09-06T19:59:16.501Z,22.61
2022-09-06T20:01:46.366Z,22.55
2022-09-06T20:04:15.693Z,22.54
2022-09-06T20:06:43.705Z,22.48
2022-09-06T20:09:12.094Z,22.41
2022-09-06T20:11:42.148Z,22.41
2022-09-06T20:14:11.496Z,22.34
2022-09-06T20:16:42.961Z,22.33
2022-09-06T20:19:12.306Z,22.28
2022-09-06T20:21:40.545Z,22.21
2022-09-06T20:24:08.857Z,22.18
2022-09-06T20:26:40.567Z,22.10
2022-09-06T20:29:08.877Z,22.08
2022-09-06T20:31:38.975Z,22.07
2022-09-06T20:34:16.126Z,22.01
2022-09-06T20:36:44.161Z,22.00
2022-09-06T20:39:12.378Z,22.00
2022-09-06T20:41:40.274Z,22.03
2022-09-06T20:44:08.768Z,22.00
2022-09-06T20:46:41.165Z,21.97
2022-09-06T20:49:09.264Z,21.94
2022-09-06T20:51:43.643Z,21.90
2022-09-06T20:54:11.973Z,21.92
2022-09-06T20:56:41.700Z,21.92
2022-09-06T20:59:12.221Z,21.83
2022-09-06T21:01:43.039Z,21.67
2022-09-06T21:04:13.272Z,21.55
2022-09-06T21:06:45.760Z,21.42
2022-09-06T21:09:14.515Z,21.27
2022-09-06T21:11:43.254Z,21.17
2022-09-06T21:14:11.876Z,21.08
2022-09-06T21:16:40.724Z,20.99
2022-09-06T21:19:12.948Z,20.89
2022-09-06T21:21:41.240Z,20.83
2022-09-06T21:24:10.780Z,20.71
2022-09-06T21:26:38.988Z,20.57
2022-09-06T21:29:07.436Z,20.45
2022-09-06T21:31:37.477Z,20.35
2022-09-06T21:34:11.475Z,20.22
2022-09-06T21:36:43.125Z,20.16
2022-09-06T21:39:12.668Z,20.11
2022-09-06T21:41:42.303Z,20.10
2022-09-06T21:44:10.704Z,20.07
2022-09-06T21:46:40.043Z,20.00
2022-09-06T21:49:11.947Z,20.00
2022-09-06T21:51:42.773Z,20.00
2022-09-06T21:54:11.139Z,19.97
2022-09-06T21:56:40.141Z,20.00
2022-09-06T21:59:09.111Z,19.94
2022-09-06T22:01:38.441Z,19.93
2022-09-06T22:04:08.222Z,19.96
2022-09-06T22:06:37.642Z,19.98
2022-09-06T22:09:11.164Z,20.00
2022-09-06T22:11:41.479Z,20.01
2022-09-06T22:14:11.598Z,20.03
2022-09-06T22:16:40.680Z,19.97
2022-09-06T22:19:09.573Z,19.94
2022-09-06T22:21:38.771Z,19.87
2022-09-06T22:24:12.040Z,19.84
2022-09-06T22:26:41.738Z,19.83
2022-09-06T22:29:13.378Z,19.82
2022-09-06T22:31:41.748Z,19.77
2022-09-06T22:34:10.527Z,19.74
2022-09-06T22:36:39.275Z,19.74
2022-09-06T22:39:10.750Z,19.67
2022-09-06T22:41:39.192Z,19.65
2022-09-06T22:44:10.650Z,19.65
2022-09-06T22:46:39.609Z,19.66
2022-09-06T22:49:08.223Z,19.62
2022-09-06T22:51:36.086Z,19.62
2022-09-06T22:54:05.208Z,19.63
2022-09-06T22:56:33.677Z,19.63
2022-09-06T22:59:01.702Z,19.70
2022-09-06T23:01:29.624Z,19.72
2022-09-06T23:03:58.869Z,19.77
2022-09-06T23:06:26.774Z,19.82
2022-09-06T23:08:54.526Z,19.89
2022-09-06T23:11:22.511Z,19.89
2022-09-06T23:13:54.812Z,19.91
2022-09-06T23:16:22.688Z,19.91
2022-09-06T23:18:50.816Z,19.82
2022-09-06T23:21:21.724Z,19.79
2022-09-06T23:23:52.102Z,19.83
2022-09-06T23:26:27.499Z,19.94
2022-09-06T23:28:56.877Z,19.93
2022-09-06T23:31:28.178Z,19.69
2022-09-06T23:33:58.295Z,19.55
2022-09-06T23:36:27.583Z,19.39
2022-09-06T23:38:57.818Z,19.19
2022-09-06T23:41:25.792Z,18.96
2022-09-06T23:43:53.843Z,18.82
2022-09-06T23:46:21.785Z,18.67
2022-09-06T23:48:49.665Z,18.51
2022-09-06T23:51:17.782Z,18.31
2022-09-06T23:53:46.009Z,18.15
2022-09-06T23:56:14.028Z,18.01
2022-09-06T23:58:41.895Z,17.87
